Time;durP1;ratioP1;P1;durP2;ratioP2;P2;SDS_P1;SDS_P2;PMS_P1;PMS_P2;Temp;Humidity;BMP_temperature;BMP_pressure;BME280_temperature;BME280_humidity;BME280_pressure;Samples;Min_cycle;Max_cycle;Signal;HPM_P1;HPM_P2
2023/04/23 00:01:17;;;;;;;;;;;;;;;;;;4974276;28;19929;-72
2023/04/23 00:03:43;;;;;;;;;;;;;;;;;;4979074;28;19925;-72
2023/04/23 00:06:10;;;;;;;;;;;;;;;;;;4971644;28;20019;-71
2023/04/23 00:08:36;;;;;;;;;;;;;;;;;;4971773;28;19926;-72
2023/04/23 00:11:05;;;;;;;;;;;;;;;;;;4976280;28;20018;-73
2023/04/23 00:13:32;;;;;;;;;;;;;;;;;;4969723;28;20076;-73
2023/04/23 00:15:59;;;;;;;;;;;;;;;;;;4976285;28;19926;-73
2023/04/23 00:18:25;;;;;;;;;;;;;;;;;;4967132;28;19976;-72
2023/04/23 00:20:52;;;;;;;;;;;;;;;;;;4974475;28;20020;-71
2023/04/23 00:23:18;;;;;;;;;;;;;;;;;;4974912;28;19932;-72
2023/04/23 00:25:45;;;;;;;;;;;;;;;;;;4981342;28;19925;-72
2023/04/23 00:28:11;;;;;;;;;;;;;;;;;;4957865;28;19948;-72
2023/04/23 00:30:38;;;;;;;;;;;;;;;;;;4981669;28;19956;-73
2023/04/23 00:33:06;;;;;;;;;;;;;;;;;;4962692;28;19925;-72
2023/04/23 00:35:32;;;;;;;;;;;;;;;;;;4968980;28;19964;-72
2023/04/23 00:37:59;;;;;;;;;;;;;;;;;;4963488;28;19967;-72
2023/04/23 00:40:25;;;;;;;;;;;;;;;;;;4971844;28;20016;-72
2023/04/23 00:42:52;;;;;;;;;;;;;;;;;;4975925;28;19925;-72
2023/04/23 00:45:19;;;;;;;;;;;;;;;;;;4980172;28;19932;-72
2023/04/23 00:47:45;;;;;;;;;;;;;;;;;;4946798;28;20099;-72
2023/04/23 00:50:12;;;;;;;;;;;;;;;;;;4986060;28;19925;-72
2023/04/23 00:52:39;;;;;;;;;;;;;;;;;;4968168;28;19948;-72
2023/04/23 00:55:07;;;;;;;;;;;;;;;;;;4976510;28;19933;-72
2023/04/23 00:57:33;;;;;;;;;;;;;;;;;;4963197;28;19941;-72
2023/04/23 01:00:01;;;;;;;;;;;;;;;;;;4988671;28;19925;-73
2023/04/23 01:02:27;;;;;;;;;;;;;;;;;;4980360;28;19973;-71
2023/04/23 01:04:53;;;;;;;;;;;;;;;;;;4980862;28;19925;-71
2023/04/23 01:07:20;;;;;;;;;;;;;;;;;;4974643;28;20132;-72
2023/04/23 01:09:46;;;;;;;;;;;;;;;;;;4920827;28;19937;-73
2023/04/23 01:12:13;;;;;;;;;;;;;;;;;;4946060;28;19925;-71
2023/04/23 01:14:39;;;;;;;;;;;;;;;;;;4973699;28;19964;-72
2023/04/23 01:17:07;;;;;;;;;;;;;;;;;;4977588;28;19933;-71
2023/04/23 01:19:34;;;;;;;;;;;;;;;;;;4960879;28;19929;-72
2023/04/23 01:22:00;;;;;;;;;;;;;;;;;;4980427;28;19925;-72
2023/04/23 01:24:27;;;;;;;;;;;;;;;;;;4972025;28;19925;-72
2023/04/23 01:26:54;;;;;;;;;;;;;;;;;;4961389;28;19925;-72
2023/04/23 01:29:20;;;;;;;;;;;;;;;;;;4934924;28;19925;-71
2023/04/23 01:31:47;;;;;;;;;;;;;;;;;;4994626;28;19925;-71
2023/04/23 01:34:14;;;;;;;;;;;;;;;;;;4975225;28;20086;-72
2023/04/23 01:36:41;;;;;;;;;;;;;;;;;;4979285;28;19984;-71
2023/04/23 01:39:07;;;;;;;;;;;;;;;;;;4953573;28;19937;-73
2023/04/23 01:41:34;;;;;;;;;;;;;;;;;;4964432;28;19925;-72
2023/04/23 01:44:00;;;;;;;;;;;;;;;;;;4979221;28;19925;-72
2023/04/23 01:46:27;;;;;;;;;;;;;;;;;;4968672;28;19957;-71
2023/04/23 01:48:53;;;;;;;;;;;;;;;;;;4939148;28;19926;-72
2023/04/23 01:51:19;;;;;;;;;;;;;;;;;;4965288;28;19933;-72
2023/04/23 01:53:46;;;;;;;;;;;;;;;;;;4981696;28;19936;-72
2023/04/23 01:56:12;;;;;;;;;;;;;;;;;;4996204;28;19925;-72
2023/04/23 01:58:39;;;;;;;;;;;;;;;;;;4981415;28;20037;-71
2023/04/23 02:01:05;;;;;;;;;;;;;;;;;;4945322;28;19926;-72
2023/04/23 02:03:33;;;;;;;;;;;;;;;;;;4975686;28;20021;-72
2023/04/23 02:05:59;;;;;;;;;;;;;;;;;;4926855;28;19996;-72
2023/04/23 02:08:26;;;;;;;;;;;;;;;;;;4964301;28;19952;-71
2023/04/23 02:10:53;;;;;;;;;;;;;;;;;;4965798;28;19932;-71
2023/04/23 02:13:19;;;;;;;;;;;;;;;;;;4978077;28;19925;-72
2023/04/23 02:15:46;;;;;;;;;;;;;;;;;;4961484;28;19930;-71
2023/04/23 02:18:12;;;;;;;;;;;;;;;;;;4962923;28;19937;-72
2023/04/23 02:20:40;;;;;;;;;;;;;;;;;;4950834;28;19926;-72
2023/04/23 02:23:06;;;;;;;;;;;;;;;;;;4972708;28;19993;-72
2023/04/23 02:25:33;;;;;;;;;;;;;;;;;;4939681;28;19925;-72
2023/04/23 02:28:00;;;;;;;;;;;;;;;;;;4958525;28;19925;-71
2023/04/23 02:35:31;;;;;;;;;;;;;;;;;;4913965;28;19929;-71
2023/04/23 02:37:58;;;;;;;;;;;;;;;;;;4931147;28;20021;-68
2023/04/23 02:40:24;;;;;;;;;;;;;;;;;;4937227;28;19930;-70
2023/04/23 02:42:51;;;;;;;;;;;;;;;;;;4928112;28;21202;-72
2023/04/23 02:45:17;;;;;;;;;;;;;;;;;;4933403;28;19953;-67
2023/04/23 02:47:44;;;;;;;;;;;;;;;;;;4938686;28;19996;-69
2023/04/23 02:50:10;;;;;;;;;;;;;;;;;;4922788;28;19925;-72
2023/04/23 02:52:36;;;;;;;;;;;;;;;;;;4910411;28;19929;-70
2023/04/23 02:55:03;;;;;;;;;;;;;;;;;;4928734;28;19933;-69
2023/04/23 02:57:29;;;;;;;;;;;;;;;;;;4939820;28;19926;-70
2023/04/23 02:59:55;;;;;;;;;;;;;;;;;;4937606;28;19937;-68
2023/04/23 03:02:21;;;;;;;;;;;;;;;;;;4942920;28;19977;-76
2023/04/23 03:04:48;;;;;;;;;;;;;;;;;;4916275;28;19936;-69
2023/04/23 03:07:16;;;;;;;;;;;;;;;;;;4928582;28;20000;-73
2023/04/23 03:09:42;;;;;;;;;;;;;;;;;;4936120;28;19958;-70
2023/04/23 03:12:08;;;;;;;;;;;;;;;;;;4937020;28;19969;-68
2023/04/23 03:14:34;;;;;;;;;;;;;;;;;;4952826;28;19935;-73
2023/04/23 03:17:01;;;;;;;;;;;;;;;;;;4963824;28;19926;-69
2023/04/23 03:19:27;;;;;;;;;;;;;;;;;;4975317;28;20119;-75
2023/04/23 03:21:53;;;;;;;;;;;;;;;;;;4978035;28;19930;-70
2023/04/23 03:24:20;;;;;;;;;;;;;;;;;;4914797;28;19973;-73
2023/04/23 03:26:47;;;;;;;;;;;;;;;;;;4928147;28;19989;-67
2023/04/23 03:29:13;;;;;;;;;;;;;;;;;;4938181;28;20056;-75
2023/04/23 03:31:39;;;;;;;;;;;;;;;;;;4978032;28;19925;-69
2023/04/23 03:34:06;;;;;;;;;;;;;;;;;;4942205;28;19926;-72
2023/04/23 03:36:32;;;;;;;;;;;;;;;;;;4907765;28;20384;-70
2023/04/23 03:38:58;;;;;;;;;;;;;;;;;;4957789;28;20001;-74
2023/04/23 03:41:24;;;;;;;;;;;;;;;;;;4919305;28;19965;-71
2023/04/23 03:43:51;;;;;;;;;;;;;;;;;;4955642;28;19925;-70
2023/04/23 03:46:17;;;;;;;;;;;;;;;;;;4943134;28;20100;-72
2023/04/23 03:48:43;;;;;;;;;;;;;;;;;;4935706;28;19925;-72
2023/04/23 03:51:10;;;;;;;;;;;;;;;;;;4951111;28;19969;-74
2023/04/23 03:53:36;;;;;;;;;;;;;;;;;;4950701;28;19932;-72
2023/04/23 03:56:02;;;;;;;;;;;;;;;;;;4912999;28;20021;-72
2023/04/23 03:58:29;;;;;;;;;;;;;;;;;;4952342;28;19930;-68
2023/04/23 04:00:56;;;;;;;;;;;;;;;;;;4920038;28;19937;-68
2023/04/23 04:03:22;;;;;;;;;;;;;;;;;;4928565;28;19929;-71
2023/04/23 04:05:48;;;;;;;;;;;;;;;;;;4897736;28;19926;-72
2023/04/23 04:08:15;;;;;;;;;;;;;;;;;;4913478;28;19970;-69
2023/04/23 04:10:41;;;;;;;;;;;;;;;;;;4931664;28;19930;-66
2023/04/23 04:13:07;;;;;;;;;;;;;;;;;;4927867;28;19938;-68
2023/04/23 04:15:34;;;;;;;;;;;;;;;;;;4913684;28;19986;-68
2023/04/23 04:18:00;;;;;;;;;;;;;;;;;;4916492;28;19993;-74
2023/04/23 04:20:27;;;;;;;;;;;;;;;;;;4912280;28;19926;-74
2023/04/23 04:22:53;;;;;;;;;;;;;;;;;;4915814;28;19937;-67
2023/04/23 04:25:21;;;;;;;;;;;;;;;;;;4935370;28;19939;-74
2023/04/23 04:27:47;;;;;;;;;;;;;;;;;;4926661;28;19933;-68
2023/04/23 04:30:13;;;;;;;;;;;;;;;;;;4906024;28;19934;-72
2023/04/23 04:32:44;;;;;;;;;;;;;;;;;;4922960;28;20001;-70
2023/04/23 04:35:11;;;;;;;;;;;;;;;;;;4949909;28;20008;-68
2023/04/23 04:37:37;;;;;;;;;;;;;;;;;;4972023;28;19925;-68
2023/04/23 04:40:07;;;;;;;;;;;;;;;;;;4951069;28;19933;-70
2023/04/23 04:42:33;;;;;;;;;;;;;;;;;;4967797;28;19926;-72
2023/04/23 04:44:59;;;;;;;;;;;;;;;;;;4966825;28;19996;-69
2023/04/23 04:47:25;;;;;;;;;;;;;;;;;;4974160;28;20044;-71
2023/04/23 04:49:52;;;;;;;;;;;;;;;;;;4939589;28;20036;-70
2023/04/23 04:52:18;;;;;;;;;;;;;;;;;;4945578;28;19953;-66
2023/04/23 04:54:44;;;;;;;;;;;;;;;;;;4924572;28;19933;-69
2023/04/23 04:57:11;;;;;;;;;;;;;;;;;;4949887;28;20005;-70
2023/04/23 04:59:37;;;;;;;;;;;;;;;;;;4920879;28;19925;-72
2023/04/23 05:02:06;;;;;;;;;;;;;;;;;;4932059;28;19930;-74
2023/04/23 05:07:17;;;;;;;;;;;;;;;;;;5095891;27;19924;-73
2023/04/23 05:09:44;;;;;;;;;;;;;;;;;;5082954;27;19935;-74
2023/04/23 05:12:11;;;;;;;;;;;;;;;;;;5081000;28;19928;-75
2023/04/23 05:14:39;;;;;;;;;;;;;;;;;;5032034;27;19967;-73
2023/04/23 05:17:05;;;;;;;;;;;;;;;;;;5063004;28;20031;-74
2023/04/23 05:19:32;;;;;;;;;;;;;;;;;;5070834;28;19932;-73
2023/04/23 05:21:58;;;;;;;;;;;;;;;;;;5059462;28;19969;-73
2023/04/23 05:24:27;;;;;;;;;;;;;;;;;;5061354;28;19936;-74
2023/04/23 05:26:53;;;;;;;;;;;;;;;;;;5003250;28;19937;-73
2023/04/23 05:29:22;;;;;;;;;;;;;;;;;;5064085;28;19928;-73
2023/04/23 05:31:48;;;;;;;;;;;;;;;;;;5068397;28;19928;-73
2023/04/23 05:34:15;;;;;;;;;;;;;;;;;;5021170;28;19929;-73
2023/04/23 05:36:41;;;;;;;;;;;;;;;;;;4956575;28;19936;-73
2023/04/23 05:39:11;;;;;;;;;;;;;;;;;;5006997;28;20258;-73
2023/04/23 05:41:40;;;;;;;;;;;;;;;;;;4993590;28;20069;-72
2023/04/23 05:44:09;;;;;;;;;;;;;;;;;;4998165;28;19929;-72
2023/04/23 05:46:38;;;;;;;;;;;;;;;;;;4994673;27;19931;-73
2023/04/23 05:49:05;;;;;;;;;;;;;;;;;;5060857;28;19934;-72
2023/04/23 05:51:31;;;;;;;;;;;;;;;;;;5063355;27;19930;-73
2023/04/23 05:53:58;;;;;;;;;;;;;;;;;;5068020;28;19973;-73
2023/04/23 05:56:28;;;;;;;;;;;;;;;;;;5040603;28;19959;-72
2023/04/23 05:58:56;;;;;;;;;;;;;;;;;;5069404;27;19936;-73
2023/04/23 06:01:23;;;;;;;;;;;;;;;;;;5065881;28;20083;-73
2023/04/23 06:03:52;;;;;;;;;;;;;;;;;;5072028;28;19927;-73
2023/04/23 06:06:19;;;;;;;;;;;;;;;;;;5053614;28;20010;-72
2023/04/23 06:08:45;;;;;;;;;;;;;;;;;;5064775;27;19995;-73
2023/04/23 06:11:12;;;;;;;;;;;;;;;;;;5073954;28;19929;-73
2023/04/23 06:13:39;;;;;;;;;;;;;;;;;;5073114;28;19928;-72
2023/04/23 06:16:06;;;;;;;;;;;;;;;;;;4997575;28;20021;-73
2023/04/23 06:18:33;;;;;;;;;;;;;;;;;;5052020;28;19924;-73
2023/04/23 06:21:03;;;;;;;;;;;;;;;;;;5031784;28;20046;-73
2023/04/23 06:23:33;;;;;;;;;;;;;;;;;;5069108;27;19935;-73
2023/04/23 06:26:03;;;;;;;;;;;;;;;;;;5037916;28;19932;-72
2023/04/23 06:28:29;;;;;;;;;;;;;;;;;;5059633;28;19934;-72
2023/04/23 06:30:56;;;;;;;;;;;;;;;;;;5061134;28;20015;-73
2023/04/23 06:33:26;;;;;;;;;;;;;;;;;;5061464;28;19928;-73
2023/04/23 06:35:52;;;;;;;;;;;;;;;;;;5028515;28;19960;-73
2023/04/23 06:38:20;;;;;;;;;;;;;;;;;;5060755;28;20076;-72
2023/04/23 06:40:49;;;;;;;;;;;;;;;;;;5026101;28;20021;-73
2023/04/23 06:43:23;;;;;;;;;;;;;;;;;;5063905;28;19978;-74
2023/04/23 06:45:50;;;;;;;;;;;;;;;;;;4875966;28;19931;-73
2023/04/23 06:48:17;;;;;;;;;;;;;;;;;;4927619;28;19941;-73
2023/04/23 06:50:43;;;;;;;;;;;;;;;;;;4982943;28;20027;-73
2023/04/23 06:53:12;;;;;;;;;;;;;;;;;;5010149;28;19925;-74
2023/04/23 06:55:39;;;;;;;;;;;;;;;;;;4902398;28;19930;-73
2023/04/23 06:58:06;;;;;;;;;;;;;;;;;;4896765;28;19934;-73
2023/04/23 07:00:38;;;;;;;;;;;;;;;;;;4937282;28;20120;-73
2023/04/23 07:03:04;;;;;;;;;;;;;;;;;;4936665;28;19934;-73
2023/04/23 07:05:32;;;;;;;;;;;;;;;;;;4871393;29;19939;-73
2023/04/23 07:07:58;;;;;;;;;;;;;;;;;;4954544;28;20039;-73
2023/04/23 07:10:25;;;;;;;;;;;;;;;;;;4992115;28;20036;-73
2023/04/23 07:12:52;;;;;;;;;;;;;;;;;;5013926;28;19929;-73
2023/04/23 07:15:19;;;;;;;;;;;;;;;;;;5023469;28;19928;-73
2023/04/23 07:17:51;;;;;;;;;;;;;;;;;;5060534;28;20048;-73
2023/04/23 07:20:21;;;;;;;;;;;;;;;;;;5018781;28;19929;-73
2023/04/23 07:22:48;;;;;;;;;;;;;;;;;;5019803;28;20179;-73
2023/04/23 07:25:16;;;;;;;;;;;;;;;;;;4992846;28;19932;-73
2023/04/23 07:27:42;;;;;;;;;;;;;;;;;;4984597;28;19929;-73
2023/04/23 07:30:09;;;;;;;;;;;;;;;;;;4963550;28;19933;-73
2023/04/23 07:32:36;;;;;;;;;;;;;;;;;;5017339;28;19924;-73
2023/04/23 07:35:04;;;;;;;;;;;;;;;;;;5039586;28;19928;-73
2023/04/23 07:37:31;;;;;;;;;;;;;;;;;;5013291;28;19935;-73
2023/04/23 07:39:57;;;;;;;;;;;;;;;;;;5003811;28;19940;-73
2023/04/23 07:42:27;;;;;;;;;;;;;;;;;;4937390;28;19949;-74
2023/04/23 07:44:53;;;;;;;;;;;;;;;;;;4928954;28;19962;-73
2023/04/23 07:47:23;;;;;;;;;;;;;;;;;;4902161;28;19937;-74
2023/04/23 07:49:49;;;;;;;;;;;;;;;;;;4969492;28;19930;-73
2023/04/23 07:52:16;;;;;;;;;;;;;;;;;;4970015;27;19932;-73
2023/04/23 07:54:43;;;;;;;;;;;;;;;;;;5054248;28;19934;-73
2023/04/23 07:57:11;;;;;;;;;;;;;;;;;;4967148;28;19929;-74
2023/04/23 07:59:37;;;;;;;;;;;;;;;;;;5032161;28;20000;-74
2023/04/23 08:02:04;;;;;;;;;;;;;;;;;;5028389;28;19935;-73
2023/04/23 08:04:30;;;;;;;;;;;;;;;;;;5018804;28;20305;-74
2023/04/23 08:06:57;;;;;;;;;;;;;;;;;;5032294;28;19939;-73
2023/04/23 08:09:23;;;;;;;;;;;;;;;;;;5030958;28;19970;-73
2023/04/23 08:11:50;;;;;;;;;;;;;;;;;;5026810;28;19936;-73
2023/04/23 08:14:18;;;;;;;;;;;;;;;;;;5019610;28;20013;-74
2023/04/23 08:16:44;;;;;;;;;;;;;;;;;;4986468;28;20316;-73
2023/04/23 08:19:11;;;;;;;;;;;;;;;;;;5040740;28;19931;-73
2023/04/23 08:21:37;;;;;;;;;;;;;;;;;;5020479;28;20027;-72
2023/04/23 08:24:04;;;;;;;;;;;;;;;;;;5041802;28;19932;-73
2023/04/23 08:26:30;;;;;;;;;;;;;;;;;;5028542;28;20019;-73
2023/04/23 08:28:59;;;;;;;;;;;;;;;;;;5040497;28;19931;-73
2023/04/23 08:31:28;;;;;;;;;;;;;;;;;;5052748;28;19935;-73
2023/04/23 08:33:54;;;;;;;;;;;;;;;;;;5027383;28;20041;-73
2023/04/23 08:36:24;;;;;;;;;;;;;;;;;;5006279;28;20005;-72
2023/04/23 08:38:51;;;;;;;;;;;;;;;;;;5021779;28;19933;-72
2023/04/23 08:41:17;;;;;;;;;;;;;;;;;;5047593;28;19992;-72
2023/04/23 08:43:44;;;;;;;;;;;;;;;;;;5031975;28;19935;-72
2023/04/23 08:46:10;;;;;;;;;;;;;;;;;;5035515;28;19935;-72
2023/04/23 08:48:37;;;;;;;;;;;;;;;;;;5028825;28;20202;-73
2023/04/23 08:51:04;;;;;;;;;;;;;;;;;;5039748;28;19935;-72
2023/04/23 08:53:31;;;;;;;;;;;;;;;;;;5046378;28;19935;-72
2023/04/23 08:55:57;;;;;;;;;;;;;;;;;;5015943;28;20018;-72
2023/04/23 08:58:26;;;;;;;;;;;;;;;;;;5066331;28;19943;-71
2023/04/23 09:00:54;;;;;;;;;;;;;;;;;;5046702;28;20265;-72
2023/04/23 09:03:21;;;;;;;;;;;;;;;;;;5036153;28;19952;-72
2023/04/23 09:05:49;;;;;;;;;;;;;;;;;;5040600;28;19932;-72
2023/04/23 09:08:15;;;;;;;;;;;;;;;;;;5027748;28;19929;-73
2023/04/23 09:10:42;;;;;;;;;;;;;;;;;;5049515;28;19931;-72
2023/04/23 09:13:08;;;;;;;;;;;;;;;;;;5043580;28;20160;-72
2023/04/23 09:15:37;;;;;;;;;;;;;;;;;;5041766;28;19936;-72
2023/04/23 09:18:03;;;;;;;;;;;;;;;;;;5040229;28;19931;-72
2023/04/23 09:20:30;;;;;;;;;;;;;;;;;;5048275;28;19928;-72
2023/04/23 09:22:57;;;;;;;;;;;;;;;;;;5055573;28;19951;-72
2023/04/23 09:25:24;;;;;;;;;;;;;;;;;;5052613;28;19929;-72
2023/04/23 09:27:50;;;;;;;;;;;;;;;;;;5031936;28;19925;-72
2023/04/23 09:31:50;;;;;;;;;;;;;;;;;;4817222;27;19936;-71
2023/04/23 09:34:16;;;;;;;;;;;;;;;;;;4982767;28;19936;-68
2023/04/23 09:36:43;;;;;;;;;;;;;;;;;;4992564;28;20035;-69
2023/04/23 09:39:11;;;;;;;;;;;;;;;;;;4994349;28;19936;-70
2023/04/23 09:41:37;;;;;;;;;;;;;;;;;;4973922;28;19933;-69
2023/04/23 09:44:04;;;;;;;;;;;;;;;;;;4989190;28;20002;-73
2023/04/23 09:46:30;;;;;;;;;;;;;;;;;;4951066;28;19929;-73
2023/04/23 09:48:56;;;;;;;;;;;;;;;;;;4978574;28;20023;-71
2023/04/23 09:51:23;;;;;;;;;;;;;;;;;;4990678;28;20081;-72
2023/04/23 09:53:49;;;;;;;;;;;;;;;;;;4997502;28;20106;-69
2023/04/23 09:56:15;;;;;;;;;;;;;;;;;;4969969;28;19958;-69
2023/04/23 09:58:42;;;;;;;;;;;;;;;;;;5004736;28;19936;-69
2023/04/23 10:01:08;;;;;;;;;;;;;;;;;;5004942;28;20000;-70
2023/04/23 10:03:34;;;;;;;;;;;;;;;;;;4992628;28;19936;-70
2023/04/23 10:06:01;;;;;;;;;;;;;;;;;;4976550;28;19940;-70
2023/04/23 10:08:28;;;;;;;;;;;;;;;;;;4977862;28;19929;-68
2023/04/23 10:10:56;;;;;;;;;;;;;;;;;;4999974;28;19929;-71
2023/04/23 10:15:09;;;;;;;9.30;3.30;;;;;;;;;;4986207;28;20138;-71
2023/04/23 10:17:39;;;;;;;7.20;2.65;;;;;;;;;;4888374;28;20185;-73
2023/04/23 10:20:11;;;;;;;11.13;3.10;;;;;;;;;;4948269;28;20055;-71
2023/04/23 10:22:38;;;;;;;8.13;2.40;;;;;;;;;;4968537;28;20097;-73
2023/04/23 10:25:13;;;;;;;6.15;2.65;;;;;;;;;;4908171;28;20056;-72
2023/04/23 10:27:40;;;;;;;6.50;2.25;;;;;;;;;;4862514;28;20046;-73
2023/04/23 10:30:12;;;;;;;6.60;2.08;;;;;;;;;;4954097;28;20055;-74
2023/04/23 10:32:38;;;;;;;5.63;2.22;;;;;;;;;;4901425;28;20059;-69
2023/04/23 10:35:08;;;;;;;12.90;2.58;;;;;;;;;;4921333;28;20319;-72
2023/04/23 10:37:38;;;;;;;7.32;2.25;;;;;;;;;;4927804;28;20065;-73
2023/04/23 10:40:11;;;;;;;10.50;2.20;;;;;;;;;;4878172;28;20050;-70
2023/04/23 10:42:38;;;;;;;7.57;2.65;;;;;;;;;;4879944;28;20206;-72
2023/04/23 10:45:13;;;;;;;9.02;2.35;;;;;;;;;;4925323;28;20067;-70
2023/04/23 10:47:41;;;;;;;5.65;2.25;;;;;;;;;;4999509;28;20050;-72
2023/04/23 10:50:22;;;;;;;7.05;1.85;;;;;;;;;;5005715;28;20141;-73
2023/04/23 10:52:52;;;;;;;11.63;2.28;;;;;;;;;;4993645;28;20061;-70
2023/04/23 10:55:19;;;;;;;6.28;1.70;;;;;;;;;;4926505;28;20203;-70
2023/04/23 10:57:57;;;;;;;4.57;1.65;;;;;;;;;;4981346;28;20062;-73
2023/04/23 11:00:24;;;;;;;6.78;1.65;;;;;;;;;;4934341;28;20047;-70
2023/04/23 11:02:52;;;;;;;6.85;1.85;;;;;;;;;;4911710;28;20056;-72
2023/04/23 11:05:19;;;;;;;6.65;1.80;;;;;;;;;;4881824;28;20058;-74
2023/04/23 11:08:03;;;;;;;6.13;1.60;;;;;;;;;;4924659;28;20066;-70
2023/04/23 11:10:31;;;;;;;6.85;1.50;;;;;;;;;;4934156;28;20066;-71
2023/04/23 11:12:58;;;;;;;5.28;1.60;;;;;;;;;;4970272;28;20130;-69
2023/04/23 11:15:24;;;;;;;7.57;1.58;;;;;;;;;;4944364;28;20170;-71
2023/04/23 11:18:10;;;;;;;6.05;1.67;;;;;;;;;;4939055;28;20061;-71
2023/04/23 11:20:36;;;;;;;6.22;1.48;;;;;;;;;;4959298;28;20069;-72
2023/04/23 11:23:06;;;;;;;4.25;1.50;;;;;;;;;;4970778;28;20141;-72
2023/04/23 11:25:33;;;;;;;6.60;1.70;;;;;;;;;;4861765;28;20127;-74
2023/04/23 11:27:59;;;;;;;5.68;1.65;;;;;;;;;;4910810;28;20079;-70
2023/04/23 11:30:29;;;;;;;6.00;1.70;;;;;;;;;;4938730;28;20177;-70
2023/04/23 11:32:58;;;;;;;5.55;1.63;;;;;;;;;;4925372;28;20090;-73
2023/04/23 11:35:36;;;;;;;5.97;1.45;;;;;;;;;;4951688;28;20058;-70
2023/04/23 11:38:08;;;;;;;7.32;1.98;;;;;;;;;;4917496;28;20062;-72
2023/04/23 11:40:36;;;;;;;4.75;1.40;;;;;;;;;;4904114;28;20055;-74
2023/04/23 11:48:21;;;;;;;5.82;1.55;;;;;;;;;;5006593;28;21156;-77
2023/04/23 11:50:49;;;;;;;5.07;1.58;;;;;;;;;;4998759;28;20056;-76
2023/04/23 11:53:16;;;;;;;7.07;1.33;;;;;;;;;;4994272;28;20057;-77
2023/04/23 11:55:44;;;;;;;7.68;1.50;;;;;;;;;;4952521;28;20049;-76
2023/04/23 11:58:17;;;;;;;7.53;1.80;;;;;;;;;;4974935;28;20050;-76
2023/04/23 12:00:44;;;;;;;5.25;1.30;;;;;;;;;;4983368;28;20053;-75
2023/04/23 12:03:12;;;;;;;6.03;1.42;;;;;;;;;;5000956;28;20053;-76
2023/04/23 12:05:42;;;;;;;6.35;1.70;;;;;;;;;;4964632;28;20068;-76
2023/04/23 12:08:10;;;;;;;4.10;1.48;;;;;;;;;;4979580;28;20045;-76
2023/04/23 12:10:45;;;;;;;3.58;1.40;;;;;;;;;;5009941;28;20057;-76
2023/04/23 12:13:20;;;;;;;5.47;1.80;;;;;;;;;;4975440;28;20066;-75
2023/04/23 12:15:47;;;;;;;5.60;1.15;;;;;;;;;;4956411;28;20065;-76
2023/04/23 12:18:17;;;;;;;5.70;1.40;;;;;;;;;;5006553;28;20053;-76
2023/04/23 12:20:47;;;;;;;7.68;1.52;;;;;;;;;;5021008;28;20052;-76
2023/04/23 12:23:14;;;;;;;3.40;1.30;;;;;;;;;;4962639;28;20042;-77
2023/04/23 12:25:41;;;;;;;6.22;1.50;;;;;;;;;;4891637;28;20064;-76
2023/04/23 12:28:09;;;;;;;3.43;1.40;;;;;;;;;;4951450;28;20089;-77
2023/04/23 12:30:44;;;;;;;6.85;1.60;;;;;;;;;;4954905;28;20314;-77
2023/04/23 12:33:15;;;;;;;6.72;1.40;;;;;;;;;;4952390;28;20057;-76
2023/04/23 12:35:42;;;;;;;5.47;1.40;;;;;;;;;;4965618;28;20064;-74
2023/04/23 12:41:56;;;;;;;3.80;1.27;;;;;;;;;;4940848;27;20137;-74
2023/04/23 12:47:06;;;;;;;5.53;1.27;;;;;;;;;;5017347;27;20453;-74
2023/04/23 12:49:34;;;;;;;3.47;1.50;;;;;;;;;;4964963;28;20054;-72
2023/04/23 12:52:06;;;;;;;2.25;1.30;;;;;;;;;;4960089;28;20058;-74
2023/04/23 12:54:36;;;;;;;2.15;1.10;;;;;;;;;;4931918;28;20145;-75
2023/04/23 12:57:03;;;;;;;8.63;1.60;;;;;;;;;;4965366;28;20141;-71
2023/04/23 12:59:31;;;;;;;6.18;1.30;;;;;;;;;;4960316;28;20050;-74
2023/04/23 13:02:00;;;;;;;2.85;1.08;;;;;;;;;;4963557;28;20050;-73
2023/04/23 13:04:35;;;;;;;7.65;1.40;;;;;;;;;;4963901;28;20170;-71
2023/04/23 13:07:02;;;;;;;6.30;1.23;;;;;;;;;;4903537;28;20113;-71
2023/04/23 13:17:05;;;;;;;4.55;1.35;;;;;;;;;;4963479;27;20488;-76
2023/04/23 13:19:37;;;;;;;5.00;1.30;;;;;;;;;;4959929;28;20049;-75
2023/04/23 13:22:04;;;;;;;2.42;1.25;;;;;;;;;;4976167;28;20082;-69
2023/04/23 13:24:33;;;;;;;2.38;1.00;;;;;;;;;;4953127;28;20045;-78
2023/04/23 13:32:08;;;;;;;7.45;1.20;;;;;;;;;;5061813;27;20408;-75
2023/04/23 13:34:37;;;;;;;4.30;1.08;;;;;;;;;;4990341;28;20077;-76
2023/04/23 13:37:08;;;;;;;3.95;1.13;;;;;;;;;;4921620;28;20118;-76
2023/04/23 13:39:34;;;;;;;3.60;1.15;;;;;;;;;;4904224;29;20055;-76
2023/04/23 13:42:03;;;;;;;2.92;1.02;;;;;;;;;;4896223;28;20131;-75
2023/04/23 13:44:30;;;;;;;3.95;1.10;;;;;;;;;;4932164;28;20134;-77
2023/04/23 13:46:57;;;;;;;6.43;1.58;;;;;;;;;;4892937;28;20055;-76
2023/04/23 13:49:26;;;;;;;7.03;1.20;;;;;;;;;;4937494;28;20121;-75
2023/04/23 13:51:57;;;;;;;4.15;1.27;;;;;;;;;;4934930;28;20079;-75
2023/04/23 13:54:26;;;;;;;4.43;1.20;;;;;;;;;;4946054;28;20068;-75
2023/04/23 13:56:53;;;;;;;3.17;1.15;;;;;;;;;;4907338;28;20058;-75
2023/04/23 13:59:20;;;;;;;6.65;1.60;;;;;;;;;;4972707;28;20068;-75
2023/04/23 14:01:53;;;;;;;2.83;1.10;;;;;;;;;;5010659;28;20077;-75
2023/04/23 14:04:21;;;;;;;4.93;1.15;;;;;;;;;;4997228;28;20141;-75
2023/04/23 14:06:49;;;;;;;4.00;1.05;;;;;;;;;;4960574;28;20129;-75
2023/04/23 14:09:17;;;;;;;3.10;1.10;;;;;;;;;;4977748;28;20149;-75
2023/04/23 14:11:44;;;;;;;6.47;0.90;;;;;;;;;;5007834;28;20049;-75
2023/04/23 14:14:11;;;;;;;4.07;1.20;;;;;;;;;;4980008;28;20074;-75
2023/04/23 14:16:40;;;;;;;1.73;0.90;;;;;;;;;;4899380;28;20177;-75
2023/04/23 14:19:07;;;;;;;;;;;;;;;;;;4973487;28;20050;-75
2023/04/23 14:21:34;;;;;;;4.88;1.00;;;;;;;;;;4955460;28;19985;-75
2023/04/23 14:24:08;;;;;;;3.72;1.20;;;;;;;;;;4944249;28;20289;-75
2023/04/23 14:26:41;;;;;;;4.20;1.10;;;;;;;;;;4895039;28;20196;-75
2023/04/23 14:29:10;;;;;;;2.15;1.10;;;;;;;;;;4918746;28;20169;-75
2023/04/23 14:39:11;;;;;;;5.00;1.17;;;;;;;;;;5050651;27;20444;-76
2023/04/23 14:41:43;;;;;;;2.78;1.00;;;;;;;;;;5018172;28;20056;-76
2023/04/23 14:44:12;;;;;;;1.25;0.77;;;;;;;;;;4974906;28;20054;-76
2023/04/23 14:49:28;;;;;;;4.47;1.20;;;;;;;;;;5002669;28;20492;-72
2023/04/23 14:51:56;;;;;;;4.47;1.20;;;;;;;;;;4987323;28;20084;-71
2023/04/23 14:54:25;;;;;;;4.07;1.20;;;;;;;;;;5002355;28;20064;-69
2023/04/23 14:56:58;;;;;;;1.92;0.98;;;;;;;;;;5007627;28;20074;-71
2023/04/23 14:59:33;;;;;;;3.10;1.10;;;;;;;;;;4964466;28;20058;-70
2023/04/23 15:01:59;;;;;;;3.70;1.30;;;;;;;;;;4920602;28;20138;-70
2023/04/23 15:04:27;;;;;;;4.95;0.98;;;;;;;;;;4891519;28;20075;-70
2023/04/23 15:06:54;;;;;;;3.92;1.20;;;;;;;;;;4899211;28;20070;-69
2023/04/23 15:09:22;;;;;;;2.20;1.00;;;;;;;;;;4967127;28;20053;-69
2023/04/23 15:11:49;;;;;;;2.30;1.00;;;;;;;;;;5004148;28;20061;-69
2023/04/23 15:14:20;;;;;;;2.97;1.05;;;;;;;;;;4995341;28;20058;-71
2023/04/23 15:16:48;;;;;;;6.30;1.00;;;;;;;;;;4980535;28;20050;-69
2023/04/23 15:19:17;;;;;;;5.78;0.90;;;;;;;;;;5007666;28;20050;-69
2023/04/23 15:21:45;;;;;;;5.97;1.30;;;;;;;;;;5013179;28;20057;-69
2023/04/23 15:24:12;;;;;;;3.50;1.05;;;;;;;;;;5005920;28;20355;-71
2023/04/23 15:26:39;;;;;;;1.77;0.90;;;;;;;;;;4967208;28;20053;-69
2023/04/23 15:29:07;;;;;;;3.25;0.95;;;;;;;;;;5032233;28;20072;-72
2023/04/23 15:31:33;;;;;;;1.92;0.93;;;;;;;;;;5012951;28;20053;-70
2023/04/23 15:34:00;;;;;;;3.67;0.98;;;;;;;;;;5007916;28;20115;-70
2023/04/23 15:36:27;;;;;;;2.67;1.10;;;;;;;;;;4981169;28;20152;-70
2023/04/23 15:38:57;;;;;;;4.63;1.20;;;;;;;;;;5026154;28;20056;-70
2023/04/23 15:41:25;;;;;;;2.83;1.02;;;;;;;;;;5011321;28;20053;-70
2023/04/23 15:43:54;;;;;;;1.23;0.90;;;;;;;;;;5011011;28;20066;-67
2023/04/23 15:46:21;;;;;;;4.00;1.58;;;;;;;;;;5007100;28;20064;-70
2023/04/23 15:48:47;;;;;;;3.50;1.27;;;;;;;;;;5032044;28;20053;-70
2023/04/23 15:51:15;;;;;;;5.88;1.60;;;;;;;;;;5034760;28;20057;-68
2023/04/23 15:53:42;;;;;;;3.08;1.38;;;;;;;;;;5030241;28;20064;-68
2023/04/23 15:56:10;;;;;;;2.60;1.10;;;;;;;;;;5017909;28;20053;-68
2023/04/23 15:58:36;;;;;;;8.32;1.17;;;;;;;;;;5031332;28;20125;-67
2023/04/23 16:01:05;;;;;;;2.45;1.00;;;;;;;;;;4997234;28;20089;-70
2023/04/23 16:03:32;;;;;;;3.83;1.20;;;;;;;;;;4994363;28;20069;-69
2023/04/23 16:05:59;;;;;;;4.57;1.33;;;;;;;;;;4994430;28;20057;-70
2023/04/23 16:08:25;;;;;;;2.03;1.20;;;;;;;;;;4989237;28;20160;-69
2023/04/23 16:10:55;;;;;;;2.90;1.02;;;;;;;;;;4995342;28;20153;-69
2023/04/23 16:13:24;;;;;;;1.48;0.90;;;;;;;;;;4997484;28;20058;-70
2023/04/23 16:15:50;;;;;;;1.65;1.02;;;;;;;;;;4994025;28;20058;-69
2023/04/23 16:18:18;;;;;;;2.78;0.88;;;;;;;;;;5010597;28;20063;-70
2023/04/23 16:20:45;;;;;;;4.20;1.17;;;;;;;;;;5017629;28;20062;-68
2023/04/23 16:23:13;;;;;;;3.03;1.05;;;;;;;;;;5021989;28;20119;-70
2023/04/23 16:25:40;;;;;;;2.67;1.00;;;;;;;;;;5019100;28;20053;-68
2023/04/23 16:28:12;;;;;;;3.70;1.00;;;;;;;;;;4996157;28;20061;-70
2023/04/23 16:30:40;;;;;;;3.30;1.10;;;;;;;;;;5019879;28;20118;-70
2023/04/23 16:33:08;;;;;;;2.03;0.93;;;;;;;;;;5020973;28;20168;-70
2023/04/23 16:35:35;;;;;;;1.73;0.88;;;;;;;;;;5014897;28;20053;-69
2023/04/23 16:38:02;;;;;;;4.22;1.00;;;;;;;;;;4983489;28;20053;-70
2023/04/23 16:40:31;;;;;;;3.72;1.20;;;;;;;;;;5027023;28;20050;-72
2023/04/23 16:42:57;;;;;;;2.95;1.10;;;;;;;;;;5027569;28;20065;-70
2023/04/23 16:45:25;;;;;;;3.60;1.13;;;;;;;;;;5017577;28;20065;-69